sensor_id;sensor_type;location;lat;lon;timestamp;temperature;humidity
26691;DHT22;14307;51.718;8.938;2022-08-19T00:02:00;19.30;99.90
26691;DHT22;14307;51.718;8.938;2022-08-19T00:04:31;19.20;99.90
26691;DHT22;14307;51.718;8.938;2022-08-19T00:06:59;19.50;99.90
26691;DHT22;14307;51.718;8.938;2022-08-19T00:09:27;19.40;99.90
26691;DHT22;14307;51.718;8.938;2022-08-19T00:11:57;19.50;99.90
26691;DHT22;14307;51.718;8.938;2022-08-19T00:14:25;19.50;99.90
26691;DHT22;14307;51.718;8.938;2022-08-19T00:16:53;19.50;99.90
26691;DHT22;14307;51.718;8.938;2022-08-19T00:19:22;19.60;99.90
26691;DHT22;14307;51.718;8.938;2022-08-19T00:21:49;19.60;99.90
26691;DHT22;14307;51.718;8.938;2022-08-19T00:24:16;19.50;99.90
26691;DHT22;14307;51.718;8.938;2022-08-19T00:26:44;19.50;99.90
26691;DHT22;14307;51.718;8.938;2022-08-19T00:29:16;19.50;99.90
26691;DHT22;14307;51.718;8.938;2022-08-19T00:31:44;19.50;99.90
26691;DHT22;14307;51.718;8.938;2022-08-19T00:34:12;19.50;99.90
26691;DHT22;14307;51.718;8.938;2022-08-19T00:36:40;19.50;99.90
26691;DHT22;14307;51.718;8.938;2022-08-19T00:39:07;19.40;99.90
26691;DHT22;14307;51.718;8.938;2022-08-19T00:41:34;19.30;99.90
26691;DHT22;14307;51.718;8.938;2022-08-19T00:44:12;19.30;99.90
26691;DHT22;14307;51.718;8.938;2022-08-19T00:46:42;19.30;99.90
26691;DHT22;14307;51.718;8.938;2022-08-19T00:49:19;19.30;99.90
26691;DHT22;14307;51.718;8.938;2022-08-19T00:51:50;19.20;99.90
26691;DHT22;14307;51.718;8.938;2022-08-19T00:54:18;19.20;99.90
26691;DHT22;14307;51.718;8.938;2022-08-19T00:56:54;19.20;99.90
26691;DHT22;14307;51.718;8.938;2022-08-19T00:59:21;19.10;99.90
26691;DHT22;14307;51.718;8.938;2022-08-19T01:02:08;19.00;99.90
26691;DHT22;14307;51.718;8.938;2022-08-19T01:04:35;19.00;99.90
26691;DHT22;14307;51.718;8.938;2022-08-19T01:07:02;19.00;99.90
26691;DHT22;14307;51.718;8.938;2022-08-19T01:09:29;19.00;99.90
26691;DHT22;14307;51.718;8.938;2022-08-19T01:11:57;19.00;99.90
26691;DHT22;14307;51.718;8.938;2022-08-19T01:14:24;19.10;99.90
26691;DHT22;14307;51.718;8.938;2022-08-19T01:16:52;19.10;99.90
26691;DHT22;14307;51.718;8.938;2022-08-19T01:19:27;19.10;99.90
26691;DHT22;14307;51.718;8.938;2022-08-19T01:22:03;19.10;99.90
26691;DHT22;14307;51.718;8.938;2022-08-19T01:24:40;19.10;99.90
26691;DHT22;14307;51.718;8.938;2022-08-19T01:27:15;19.10;99.90
26691;DHT22;14307;51.718;8.938;2022-08-19T01:29:44;18.90;99.90
26691;DHT22;14307;51.718;8.938;2022-08-19T01:32:13;18.90;99.90
26691;DHT22;14307;51.718;8.938;2022-08-19T01:35:00;18.90;99.90
26691;DHT22;14307;51.718;8.938;2022-08-19T01:37:28;18.80;99.90
26691;DHT22;14307;51.718;8.938;2022-08-19T01:39:56;18.90;99.90
26691;DHT22;14307;51.718;8.938;2022-08-19T01:42:24;18.90;99.90
26691;DHT22;14307;51.718;8.938;2022-08-19T01:44:56;18.90;99.90
26691;DHT22;14307;51.718;8.938;2022-08-19T01:47:23;18.90;99.90
26691;DHT22;14307;51.718;8.938;2022-08-19T01:49:50;18.70;99.90
26691;DHT22;14307;51.718;8.938;2022-08-19T01:52:17;18.70;99.90
26691;DHT22;14307;51.718;8.938;2022-08-19T01:54:44;18.70;99.90
26691;DHT22;14307;51.718;8.938;2022-08-19T01:57:12;18.50;99.90
26691;DHT22;14307;51.718;8.938;2022-08-19T01:59:41;18.50;99.90
26691;DHT22;14307;51.718;8.938;2022-08-19T02:02:09;18.50;99.90
26691;DHT22;14307;51.718;8.938;2022-08-19T02:04:37;18.40;99.90
26691;DHT22;14307;51.718;8.938;2022-08-19T02:07:07;18.20;99.90
26691;DHT22;14307;51.718;8.938;2022-08-19T02:09:35;18.10;99.90
26691;DHT22;14307;51.718;8.938;2022-08-19T02:12:03;18.10;99.90
26691;DHT22;14307;51.718;8.938;2022-08-19T02:14:29;18.00;99.90
26691;DHT22;14307;51.718;8.938;2022-08-19T02:16:56;17.80;99.90
26691;DHT22;14307;51.718;8.938;2022-08-19T02:19:23;17.70;99.90
26691;DHT22;14307;51.718;8.938;2022-08-19T02:21:50;17.70;99.90
26691;DHT22;14307;51.718;8.938;2022-08-19T02:24:16;17.70;99.90
26691;DHT22;14307;51.718;8.938;2022-08-19T02:26:44;17.70;99.90
26691;DHT22;14307;51.718;8.938;2022-08-19T02:29:10;17.70;99.90
26691;DHT22;14307;51.718;8.938;2022-08-19T02:31:37;17.60;99.90
26691;DHT22;14307;51.718;8.938;2022-08-19T02:34:04;17.50;99.90
26691;DHT22;14307;51.718;8.938;2022-08-19T02:36:31;17.40;99.90
26691;DHT22;14307;51.718;8.938;2022-08-19T02:38:57;17.40;99.90
26691;DHT22;14307;51.718;8.938;2022-08-19T02:41:28;17.40;99.90
26691;DHT22;14307;51.718;8.938;2022-08-19T02:43:56;17.30;99.90
26691;DHT22;14307;51.718;8.938;2022-08-19T02:46:46;17.30;99.90
26691;DHT22;14307;51.718;8.938;2022-08-19T02:52:05;17.30;99.90
26691;DHT22;14307;51.718;8.938;2022-08-19T02:54:31;17.20;99.90
26691;DHT22;14307;51.718;8.938;2022-08-19T02:56:58;17.10;99.90
26691;DHT22;14307;51.718;8.938;2022-08-19T02:59:25;17.10;99.90
26691;DHT22;14307;51.718;8.938;2022-08-19T03:01:52;17.20;99.90
26691;DHT22;14307;51.718;8.938;2022-08-19T03:04:19;17.20;99.90
26691;DHT22;14307;51.718;8.938;2022-08-19T03:06:47;17.20;99.90
26691;DHT22;14307;51.718;8.938;2022-08-19T03:09:14;17.10;99.90
26691;DHT22;14307;51.718;8.938;2022-08-19T03:11:41;17.10;99.90
26691;DHT22;14307;51.718;8.938;2022-08-19T03:14:09;17.10;99.90
26691;DHT22;14307;51.718;8.938;2022-08-19T03:16:46;17.10;99.90
26691;DHT22;14307;51.718;8.938;2022-08-19T03:19:16;17.10;99.90
26691;DHT22;14307;51.718;8.938;2022-08-19T03:21:44;17.10;99.90
26691;DHT22;14307;51.718;8.938;2022-08-19T03:24:11;17.00;99.90
26691;DHT22;14307;51.718;8.938;2022-08-19T03:26:41;16.80;99.90
26691;DHT22;14307;51.718;8.938;2022-08-19T03:29:08;16.80;99.90
26691;DHT22;14307;51.718;8.938;2022-08-19T03:31:40;16.60;99.90
26691;DHT22;14307;51.718;8.938;2022-08-19T03:34:21;16.60;99.90
26691;DHT22;14307;51.718;8.938;2022-08-19T03:36:48;16.60;99.90
26691;DHT22;14307;51.718;8.938;2022-08-19T03:39:16;16.50;99.90
26691;DHT22;14307;51.718;8.938;2022-08-19T03:41:45;16.60;99.90
26691;DHT22;14307;51.718;8.938;2022-08-19T03:44:16;16.50;99.90
26691;DHT22;14307;51.718;8.938;2022-08-19T03:46:47;16.40;99.90
26691;DHT22;14307;51.718;8.938;2022-08-19T03:49:15;16.40;99.90
26691;DHT22;14307;51.718;8.938;2022-08-19T03:51:45;16.30;99.90
26691;DHT22;14307;51.718;8.938;2022-08-19T03:54:14;16.30;99.90
26691;DHT22;14307;51.718;8.938;2022-08-19T03:56:42;16.40;99.90
26691;DHT22;14307;51.718;8.938;2022-08-19T03:59:13;16.30;99.90
26691;DHT22;14307;51.718;8.938;2022-08-19T04:01:40;16.30;99.90
26691;DHT22;14307;51.718;8.938;2022-08-19T04:04:07;16.30;99.90
26691;DHT22;14307;51.718;8.938;2022-08-19T04:06:36;16.20;99.90
26691;DHT22;14307;51.718;8.938;2022-08-19T04:09:09;16.20;99.90
26691;DHT22;14307;51.718;8.938;2022-08-19T04:11:48;16.10;99.90
26691;DHT22;14307;51.718;8.938;2022-08-19T04:14:19;16.10;99.90
26691;DHT22;14307;51.718;8.938;2022-08-19T04:16:47;16.10;99.90
26691;DHT22;14307;51.718;8.938;2022-08-19T04:19:16;16.10;99.90
26691;DHT22;14307;51.718;8.938;2022-08-19T04:21:45;16.10;99.90
26691;DHT22;14307;51.718;8.938;2022-08-19T04:24:13;16.10;99.90
26691;DHT22;14307;51.718;8.938;2022-08-19T04:26:41;16.10;99.90
26691;DHT22;14307;51.718;8.938;2022-08-19T04:29:14;16.10;99.90
26691;DHT22;14307;51.718;8.938;2022-08-19T04:31:42;16.10;99.90
26691;DHT22;14307;51.718;8.938;2022-08-19T04:34:14;16.10;99.90
26691;DHT22;14307;51.718;8.938;2022-08-19T04:36:43;16.20;99.90
26691;DHT22;14307;51.718;8.938;2022-08-19T04:39:14;16.20;99.90
26691;DHT22;14307;51.718;8.938;2022-08-19T04:41:43;16.20;99.90
26691;DHT22;14307;51.718;8.938;2022-08-19T04:44:33;16.20;99.90
26691;DHT22;14307;51.718;8.938;2022-08-19T04:47:01;16.20;99.90
26691;DHT22;14307;51.718;8.938;2022-08-19T04:49:37;16.30;99.90
26691;DHT22;14307;51.718;8.938;2022-08-19T04:52:03;16.40;99.90
26691;DHT22;14307;51.718;8.938;2022-08-19T04:54:30;16.50;99.90
26691;DHT22;14307;51.718;8.938;2022-08-19T04:57:06;16.50;99.90
26691;DHT22;14307;51.718;8.938;2022-08-19T04:59:35;16.60;99.90
26691;DHT22;14307;51.718;8.938;2022-08-19T05:02:03;16.50;99.90
26691;DHT22;14307;51.718;8.938;2022-08-19T05:04:30;16.60;99.90
26691;DHT22;14307;51.718;8.938;2022-08-19T05:06:59;16.60;99.90
26691;DHT22;14307;51.718;8.938;2022-08-19T05:09:34;16.60;99.90
26691;DHT22;14307;51.718;8.938;2022-08-19T05:12:36;16.70;99.90
26691;DHT22;14307;51.718;8.938;2022-08-19T05:15:05;16.70;99.90
26691;DHT22;14307;51.718;8.938;2022-08-19T05:17:32;16.70;99.90
26691;DHT22;14307;51.718;8.938;2022-08-19T05:20:05;16.90;99.90
26691;DHT22;14307;51.718;8.938;2022-08-19T05:22:52;16.80;99.90
26691;DHT22;14307;51.718;8.938;2022-08-19T05:25:20;16.70;99.90
26691;DHT22;14307;51.718;8.938;2022-08-19T05:27:47;16.80;99.90
26691;DHT22;14307;51.718;8.938;2022-08-19T05:30:15;16.90;99.90
26691;DHT22;14307;51.718;8.938;2022-08-19T05:32:43;16.90;99.90
26691;DHT22;14307;51.718;8.938;2022-08-19T05:35:09;17.00;99.90
26691;DHT22;14307;51.718;8.938;2022-08-19T05:37:37;17.00;99.90
26691;DHT22;14307;51.718;8.938;2022-08-19T05:40:07;17.10;99.90
26691;DHT22;14307;51.718;8.938;2022-08-19T05:42:34;17.10;99.90
26691;DHT22;14307;51.718;8.938;2022-08-19T05:45:02;17.20;99.90
26691;DHT22;14307;51.718;8.938;2022-08-19T05:47:28;17.10;99.90
26691;DHT22;14307;51.718;8.938;2022-08-19T05:49:55;17.10;99.90
26691;DHT22;14307;51.718;8.938;2022-08-19T05:52:22;17.20;99.90
26691;DHT22;14307;51.718;8.938;2022-08-19T05:54:52;17.20;99.90
26691;DHT22;14307;51.718;8.938;2022-08-19T05:57:22;17.20;99.90
26691;DHT22;14307;51.718;8.938;2022-08-19T05:59:50;17.20;99.90
26691;DHT22;14307;51.718;8.938;2022-08-19T06:02:25;17.30;99.90
26691;DHT22;14307;51.718;8.938;2022-08-19T06:04:52;17.30;99.90
26691;DHT22;14307;51.718;8.938;2022-08-19T06:07:19;17.30;99.90
26691;DHT22;14307;51.718;8.938;2022-08-19T06:09:46;17.40;99.90
26691;DHT22;14307;51.718;8.938;2022-08-19T06:12:28;17.40;99.90
26691;DHT22;14307;51.718;8.938;2022-08-19T06:14:59;17.40;99.90
26691;DHT22;14307;51.718;8.938;2022-08-19T06:17:31;17.40;99.90
26691;DHT22;14307;51.718;8.938;2022-08-19T06:19:58;17.40;99.90
26691;DHT22;14307;51.718;8.938;2022-08-19T06:22:26;17.40;99.90
26691;DHT22;14307;51.718;8.938;2022-08-19T06:24:55;17.50;99.90
26691;DHT22;14307;51.718;8.938;2022-08-19T06:27:22;17.50;99.90
26691;DHT22;14307;51.718;8.938;2022-08-19T06:29:49;17.60;99.90
26691;DHT22;14307;51.718;8.938;2022-08-19T06:32:17;17.70;99.90
26691;DHT22;14307;51.718;8.938;2022-08-19T06:34:45;17.70;99.90
26691;DHT22;14307;51.718;8.938;2022-08-19T06:37:12;17.70;99.90
26691;DHT22;14307;51.718;8.938;2022-08-19T06:39:42;17.80;99.90
26691;DHT22;14307;51.718;8.938;2022-08-19T06:42:10;17.80;99.90
26691;DHT22;14307;51.718;8.938;2022-08-19T06:44:40;17.80;99.90
26691;DHT22;14307;51.718;8.938;2022-08-19T06:47:13;17.90;99.90
26691;DHT22;14307;51.718;8.938;2022-08-19T06:49:53;17.90;99.90
26691;DHT22;14307;51.718;8.938;2022-08-19T06:52:26;17.90;99.90
26691;DHT22;14307;51.718;8.938;2022-08-19T06:54:54;18.10;99.90
26691;DHT22;14307;51.718;8.938;2022-08-19T06:57:26;18.10;99.90
26691;DHT22;14307;51.718;8.938;2022-08-19T06:59:53;18.20;99.90
26691;DHT22;14307;51.718;8.938;2022-08-19T07:02:21;18.30;99.90
26691;DHT22;14307;51.718;8.938;2022-08-19T07:04:48;18.30;99.90
26691;DHT22;14307;51.718;8.938;2022-08-19T07:07:20;18.40;99.90
26691;DHT22;14307;51.718;8.938;2022-08-19T07:09:49;18.50;99.90
26691;DHT22;14307;51.718;8.938;2022-08-19T07:12:27;18.80;99.90
26691;DHT22;14307;51.718;8.938;2022-08-19T07:14:56;18.90;99.90
26691;DHT22;14307;51.718;8.938;2022-08-19T07:17:24;19.00;99.90
26691;DHT22;14307;51.718;8.938;2022-08-19T07:19:51;19.20;99.90
26691;DHT22;14307;51.718;8.938;2022-08-19T07:22:21;19.50;99.90
26691;DHT22;14307;51.718;8.938;2022-08-19T07:24:51;19.80;99.90
26691;DHT22;14307;51.718;8.938;2022-08-19T07:27:19;20.00;99.90
26691;DHT22;14307;51.718;8.938;2022-08-19T07:29:53;20.30;99.90
26691;DHT22;14307;51.718;8.938;2022-08-19T07:32:24;20.80;99.90
26691;DHT22;14307;51.718;8.938;2022-08-19T07:34:54;21.20;99.90
26691;DHT22;14307;51.718;8.938;2022-08-19T07:37:23;21.70;99.90
26691;DHT22;14307;51.718;8.938;2022-08-19T07:39:55;21.80;99.90
26691;DHT22;14307;51.718;8.938;2022-08-19T07:42:22;21.50;99.90
26691;DHT22;14307;51.718;8.938;2022-08-19T07:44:48;21.30;99.90
26691;DHT22;14307;51.718;8.938;2022-08-19T07:47:17;21.20;99.90
26691;DHT22;14307;51.718;8.938;2022-08-19T07:50:07;21.30;99.90
26691;DHT22;14307;51.718;8.938;2022-08-19T07:52:35;21.40;99.90
26691;DHT22;14307;51.718;8.938;2022-08-19T07:55:06;21.70;99.90
26691;DHT22;14307;51.718;8.938;2022-08-19T07:57:54;21.70;99.90
26691;DHT22;14307;51.718;8.938;2022-08-19T08:00:21;21.80;99.90
26691;DHT22;14307;51.718;8.938;2022-08-19T08:02:51;22.00;99.90
26691;DHT22;14307;51.718;8.938;2022-08-19T08:05:22;22.00;99.90
26691;DHT22;14307;51.718;8.938;2022-08-19T08:08:13;22.00;99.90
26691;DHT22;14307;51.718;8.938;2022-08-19T08:10:59;22.30;99.90
26691;DHT22;14307;51.718;8.938;2022-08-19T08:13:27;22.40;99.90
26691;DHT22;14307;51.718;8.938;2022-08-19T08:15:55;22.30;99.90
26691;DHT22;14307;51.718;8.938;2022-08-19T08:18:23;22.30;99.90
26691;DHT22;14307;51.718;8.938;2022-08-19T08:20:54;22.30;99.90
26691;DHT22;14307;51.718;8.938;2022-08-19T08:23:21;22.00;99.90
26691;DHT22;14307;51.718;8.938;2022-08-19T08:25:55;22.20;99.90
26691;DHT22;14307;51.718;8.938;2022-08-19T08:28:24;22.50;99.90
26691;DHT22;14307;51.718;8.938;2022-08-19T08:30:51;22.50;99.90
26691;DHT22;14307;51.718;8.938;2022-08-19T08:33:24;22.40;99.90
26691;DHT22;14307;51.718;8.938;2022-08-19T08:36:04;22.40;99.90
26691;DHT22;14307;51.718;8.938;2022-08-19T08:38:32;22.80;99.90
26691;DHT22;14307;51.718;8.938;2022-08-19T08:43:49;23.10;99.90
26691;DHT22;14307;51.718;8.938;2022-08-19T08:46:34;23.00;99.90
26691;DHT22;14307;51.718;8.938;2022-08-19T08:51:45;23.20;99.90
26691;DHT22;14307;51.718;8.938;2022-08-19T08:54:23;23.30;99.90
26691;DHT22;14307;51.718;8.938;2022-08-19T08:56:53;23.10;99.90
26691;DHT22;14307;51.718;8.938;2022-08-19T08:59:31;23.20;99.90
26691;DHT22;14307;51.718;8.938;2022-08-19T09:02:01;23.20;99.90
26691;DHT22;14307;51.718;8.938;2022-08-19T09:04:28;23.40;99.90
26691;DHT22;14307;51.718;8.938;2022-08-19T09:07:10;23.50;99.90
26691;DHT22;14307;51.718;8.938;2022-08-19T09:13:10;23.40;99.90
26691;DHT22;14307;51.718;8.938;2022-08-19T09:15:48;23.40;99.90
26691;DHT22;14307;51.718;8.938;2022-08-19T09:18:15;23.30;99.90
26691;DHT22;14307;51.718;8.938;2022-08-19T09:20:45;23.50;99.90
26691;DHT22;14307;51.718;8.938;2022-08-19T09:23:14;23.60;99.90
26691;DHT22;14307;51.718;8.938;2022-08-19T09:25:40;23.90;99.90
26691;DHT22;14307;51.718;8.938;2022-08-19T09:28:07;24.20;99.90
26691;DHT22;14307;51.718;8.938;2022-08-19T09:30:48;24.50;99.90
26691;DHT22;14307;51.718;8.938;2022-08-19T09:33:18;24.60;99.90
26691;DHT22;14307;51.718;8.938;2022-08-19T09:35:46;24.60;99.90
26691;DHT22;14307;51.718;8.938;2022-08-19T09:38:19;24.30;99.90
26691;DHT22;14307;51.718;8.938;2022-08-19T09:40:46;24.40;99.90
26691;DHT22;14307;51.718;8.938;2022-08-19T09:43:13;24.20;99.90
26691;DHT22;14307;51.718;8.938;2022-08-19T09:45:40;24.20;99.90
26691;DHT22;14307;51.718;8.938;2022-08-19T09:48:07;24.20;99.90
26691;DHT22;14307;51.718;8.938;2022-08-19T09:50:37;24.20;99.90
26691;DHT22;14307;51.718;8.938;2022-08-19T09:53:17;24.10;99.90
26691;DHT22;14307;51.718;8.938;2022-08-19T09:55:45;23.90;99.90
26691;DHT22;14307;51.718;8.938;2022-08-19T09:58:11;24.30;99.90
26691;DHT22;14307;51.718;8.938;2022-08-19T10:00:38;24.40;99.90
26691;DHT22;14307;51.718;8.938;2022-08-19T10:03:05;24.90;99.90
26691;DHT22;14307;51.718;8.938;2022-08-19T10:05:34;25.30;99.90
26691;DHT22;14307;51.718;8.938;2022-08-19T10:08:35;25.20;99.90
26691;DHT22;14307;51.718;8.938;2022-08-19T10:11:03;25.60;99.90
26691;DHT22;14307;51.718;8.938;2022-08-19T10:13:50;25.50;99.90
26691;DHT22;14307;51.718;8.938;2022-08-19T10:16:20;25.40;99.90
26691;DHT22;14307;51.718;8.938;2022-08-19T10:18:52;24.90;99.90
26691;DHT22;14307;51.718;8.938;2022-08-19T10:21:28;24.80;99.90
26691;DHT22;14307;51.718;8.938;2022-08-19T10:24:00;25.00;99.90
26691;DHT22;14307;51.718;8.938;2022-08-19T10:26:33;25.40;99.90
26691;DHT22;14307;51.718;8.938;2022-08-19T10:29:02;25.40;99.90
26691;DHT22;14307;51.718;8.938;2022-08-19T10:31:33;25.70;99.90
26691;DHT22;14307;51.718;8.938;2022-08-19T10:34:20;25.50;99.90
26691;DHT22;14307;51.718;8.938;2022-08-19T10:36:54;25.60;99.90
26691;DHT22;14307;51.718;8.938;2022-08-19T10:39:26;25.50;99.90
26691;DHT22;14307;51.718;8.938;2022-08-19T10:41:56;25.30;99.90
26691;DHT22;14307;51.718;8.938;2022-08-19T10:44:24;25.20;99.90
26691;DHT22;14307;51.718;8.938;2022-08-19T10:46:58;25.00;99.90
26691;DHT22;14307;51.718;8.938;2022-08-19T10:49:25;25.30;99.90
26691;DHT22;14307;51.718;8.938;2022-08-19T10:51:54;25.60;99.90
26691;DHT22;14307;51.718;8.938;2022-08-19T10:54:46;25.80;99.90
26691;DHT22;14307;51.718;8.938;2022-08-19T10:57:35;25.90;99.90
26691;DHT22;14307;51.718;8.938;2022-08-19T11:00:22;25.80;99.90
26691;DHT22;14307;51.718;8.938;2022-08-19T11:02:50;26.10;99.90
26691;DHT22;14307;51.718;8.938;2022-08-19T11:05:18;26.40;99.90
26691;DHT22;14307;51.718;8.938;2022-08-19T11:07:49;26.70;99.90
26691;DHT22;14307;51.718;8.938;2022-08-19T11:10:18;26.80;99.90
26691;DHT22;14307;51.718;8.938;2022-08-19T11:12:48;27.10;99.90
26691;DHT22;14307;51.718;8.938;2022-08-19T11:15:15;27.40;99.90
26691;DHT22;14307;51.718;8.938;2022-08-19T11:17:42;27.50;99.90
26691;DHT22;14307;51.718;8.938;2022-08-19T11:20:11;27.10;99.90
26691;DHT22;14307;51.718;8.938;2022-08-19T11:22:39;26.70;99.90
26691;DHT22;14307;51.718;8.938;2022-08-19T11:25:09;26.80;99.90
26691;DHT22;14307;51.718;8.938;2022-08-19T11:27:41;27.00;99.90
26691;DHT22;14307;51.718;8.938;2022-08-19T11:30:11;26.90;99.90
26691;DHT22;14307;51.718;8.938;2022-08-19T11:32:40;27.20;99.90
26691;DHT22;14307;51.718;8.938;2022-08-19T11:35:12;27.40;99.90
26691;DHT22;14307;51.718;8.938;2022-08-19T11:37:39;27.70;99.90
26691;DHT22;14307;51.718;8.938;2022-08-19T11:40:07;27.80;99.90
26691;DHT22;14307;51.718;8.938;2022-08-19T11:42:34;27.60;99.90
26691;DHT22;14307;51.718;8.938;2022-08-19T11:45:20;26.70;99.90
26691;DHT22;14307;51.718;8.938;2022-08-19T11:47:47;26.40;99.90
26691;DHT22;14307;51.718;8.938;2022-08-19T11:50:15;26.10;99.90
26691;DHT22;14307;51.718;8.938;2022-08-19T11:52:42;25.80;99.90
26691;DHT22;14307;51.718;8.938;2022-08-19T11:55:11;26.00;99.90
26691;DHT22;14307;51.718;8.938;2022-08-19T11:57:38;26.30;99.90
26691;DHT22;14307;51.718;8.938;2022-08-19T12:00:05;26.90;99.90
26691;DHT22;14307;51.718;8.938;2022-08-19T12:02:33;27.20;99.90
26691;DHT22;14307;51.718;8.938;2022-08-19T12:05:00;27.30;99.90
26691;DHT22;14307;51.718;8.938;2022-08-19T12:07:29;27.30;99.90
26691;DHT22;14307;51.718;8.938;2022-08-19T12:09:59;27.60;99.90
26691;DHT22;14307;51.718;8.938;2022-08-19T12:12:27;27.40;99.90
26691;DHT22;14307;51.718;8.938;2022-08-19T12:14:54;27.20;99.90
26691;DHT22;14307;51.718;8.938;2022-08-19T12:17:25;27.40;99.90
26691;DHT22;14307;51.718;8.938;2022-08-19T12:19:54;27.80;99.90
26691;DHT22;14307;51.718;8.938;2022-08-19T12:22:20;28.10;99.90
26691;DHT22;14307;51.718;8.938;2022-08-19T12:24:48;28.10;99.90
26691;DHT22;14307;51.718;8.938;2022-08-19T12:27:17;28.20;99.90
26691;DHT22;14307;51.718;8.938;2022-08-19T12:30:05;28.20;99.90
26691;DHT22;14307;51.718;8.938;2022-08-19T12:32:33;27.60;99.90
26691;DHT22;14307;51.718;8.938;2022-08-19T12:35:00;27.60;99.90
26691;DHT22;14307;51.718;8.938;2022-08-19T12:37:27;27.50;99.90
26691;DHT22;14307;51.718;8.938;2022-08-19T12:39:54;27.60;99.90
26691;DHT22;14307;51.718;8.938;2022-08-19T12:42:21;27.60;99.90
26691;DHT22;14307;51.718;8.938;2022-08-19T12:44:49;27.90;99.90
26691;DHT22;14307;51.718;8.938;2022-08-19T12:47:16;28.00;99.90
26691;DHT22;14307;51.718;8.938;2022-08-19T12:49:45;28.30;99.90
26691;DHT22;14307;51.718;8.938;2022-08-19T12:52:23;28.50;99.90
26691;DHT22;14307;51.718;8.938;2022-08-19T12:54:52;28.70;99.90
26691;DHT22;14307;51.718;8.938;2022-08-19T12:57:22;28.80;99.90
26691;DHT22;14307;51.718;8.938;2022-08-19T13:00:14;28.80;99.90
26691;DHT22;14307;51.718;8.938;2022-08-19T13:02:44;29.00;99.90
26691;DHT22;14307;51.718;8.938;2022-08-19T13:05:16;28.70;99.90
26691;DHT22;14307;51.718;8.938;2022-08-19T13:07:46;28.70;99.90
26691;DHT22;14307;51.718;8.938;2022-08-19T13:10:16;28.70;99.90
26691;DHT22;14307;51.718;8.938;2022-08-19T13:12:44;28.10;99.90
26691;DHT22;14307;51.718;8.938;2022-08-19T13:15:11;28.10;99.90
26691;DHT22;14307;51.718;8.938;2022-08-19T13:17:41;28.40;99.90
26691;DHT22;14307;51.718;8.938;2022-08-19T13:20:09;28.80;99.90
26691;DHT22;14307;51.718;8.938;2022-08-19T13:22:37;28.80;99.90
26691;DHT22;14307;51.718;8.938;2022-08-19T13:25:05;28.80;99.90
26691;DHT22;14307;51.718;8.938;2022-08-19T13:27:32;29.10;99.90
26691;DHT22;14307;51.718;8.938;2022-08-19T13:30:00;29.20;99.90
26691;DHT22;14307;51.718;8.938;2022-08-19T13:32:45;28.50;99.90
26691;DHT22;14307;51.718;8.938;2022-08-19T13:35:30;27.80;99.90
26691;DHT22;14307;51.718;8.938;2022-08-19T13:37:56;27.70;99.90
26691;DHT22;14307;51.718;8.938;2022-08-19T13:40:24;27.50;99.90
26691;DHT22;14307;51.718;8.938;2022-08-19T13:42:54;27.00;99.90
26691;DHT22;14307;51.718;8.938;2022-08-19T13:45:23;26.90;99.90
26691;DHT22;14307;51.718;8.938;2022-08-19T13:47:54;26.90;99.90
26691;DHT22;14307;51.718;8.938;2022-08-19T13:50:27;26.70;99.90
26691;DHT22;14307;51.718;8.938;2022-08-19T13:52:55;26.70;99.90
26691;DHT22;14307;51.718;8.938;2022-08-19T13:55:23;26.60;99.90
26691;DHT22;14307;51.718;8.938;2022-08-19T13:57:52;26.60;99.90
26691;DHT22;14307;51.718;8.938;2022-08-19T14:00:21;26.70;99.90
26691;DHT22;14307;51.718;8.938;2022-08-19T14:02:51;26.60;99.90
26691;DHT22;14307;51.718;8.938;2022-08-19T14:05:20;26.90;99.90
26691;DHT22;14307;51.718;8.938;2022-08-19T14:07:47;27.30;99.90
26691;DHT22;14307;51.718;8.938;2022-08-19T14:10:15;27.70;99.90
26691;DHT22;14307;51.718;8.938;2022-08-19T14:12:42;27.80;99.90
26691;DHT22;14307;51.718;8.938;2022-08-19T14:15:10;27.70;99.90
26691;DHT22;14307;51.718;8.938;2022-08-19T14:17:39;27.40;99.90
26691;DHT22;14307;51.718;8.938;2022-08-19T14:20:08;27.20;99.90
26691;DHT22;14307;51.718;8.938;2022-08-19T14:22:44;26.70;99.90
26691;DHT22;14307;51.718;8.938;2022-08-19T14:25:14;26.50;99.90
26691;DHT22;14307;51.718;8.938;2022-08-19T14:27:42;26.30;99.90
26691;DHT22;14307;51.718;8.938;2022-08-19T14:30:12;26.20;99.90
26691;DHT22;14307;51.718;8.938;2022-08-19T14:32:40;26.20;99.90
26691;DHT22;14307;51.718;8.938;2022-08-19T14:35:11;26.20;99.90
26691;DHT22;14307;51.718;8.938;2022-08-19T14:37:39;26.30;99.90
26691;DHT22;14307;51.718;8.938;2022-08-19T14:40:24;26.40;99.90
26691;DHT22;14307;51.718;8.938;2022-08-19T14:42:53;26.40;99.90
26691;DHT22;14307;51.718;8.938;2022-08-19T14:45:29;26.50;99.90
26691;DHT22;14307;51.718;8.938;2022-08-19T14:50:28;26.40;99.90
26691;DHT22;14307;51.718;8.938;2022-08-19T14:53:08;26.50;99.90
26691;DHT22;14307;51.718;8.938;2022-08-19T14:55:44;26.40;99.90
26691;DHT22;14307;51.718;8.938;2022-08-19T14:58:12;26.70;99.90
26691;DHT22;14307;51.718;8.938;2022-08-19T15:00:56;27.00;99.90
26691;DHT22;14307;51.718;8.938;2022-08-19T15:03:23;27.00;99.90
26691;DHT22;14307;51.718;8.938;2022-08-19T15:05:50;26.70;99.90
26691;DHT22;14307;51.718;8.938;2022-08-19T15:08:17;26.60;99.90
26691;DHT22;14307;51.718;8.938;2022-08-19T15:10:44;26.60;99.90
26691;DHT22;14307;51.718;8.938;2022-08-19T15:13:10;26.50;99.90
26691;DHT22;14307;51.718;8.938;2022-08-19T15:15:37;26.40;99.90
26691;DHT22;14307;51.718;8.938;2022-08-19T15:18:05;26.20;99.90
26691;DHT22;14307;51.718;8.938;2022-08-19T15:20:32;26.20;99.90
26691;DHT22;14307;51.718;8.938;2022-08-19T15:22:59;26.10;99.90
26691;DHT22;14307;51.718;8.938;2022-08-19T15:25:29;26.10;99.90
26691;DHT22;14307;51.718;8.938;2022-08-19T15:27:56;25.90;99.90
26691;DHT22;14307;51.718;8.938;2022-08-19T15:30:26;25.90;99.90
26691;DHT22;14307;51.718;8.938;2022-08-19T15:32:54;25.90;99.90
26691;DHT22;14307;51.718;8.938;2022-08-19T15:35:22;25.90;99.90
26691;DHT22;14307;51.718;8.938;2022-08-19T15:37:50;25.90;99.90
26691;DHT22;14307;51.718;8.938;2022-08-19T15:40:18;25.80;99.90
26691;DHT22;14307;51.718;8.938;2022-08-19T15:42:45;25.70;99.90
26691;DHT22;14307;51.718;8.938;2022-08-19T15:45:13;25.80;99.90
26691;DHT22;14307;51.718;8.938;2022-08-19T15:47:41;25.90;99.90
26691;DHT22;14307;51.718;8.938;2022-08-19T15:50:11;25.90;99.90
26691;DHT22;14307;51.718;8.938;2022-08-19T15:52:49;26.00;99.90
26691;DHT22;14307;51.718;8.938;2022-08-19T15:55:18;26.20;99.90
26691;DHT22;14307;51.718;8.938;2022-08-19T15:58:09;26.20;99.90
26691;DHT22;14307;51.718;8.938;2022-08-19T16:01:06;26.00;99.90
26691;DHT22;14307;51.718;8.938;2022-08-19T16:03:54;26.00;99.90
26691;DHT22;14307;51.718;8.938;2022-08-19T16:06:54;25.90;99.90